Time;durP1;ratioP1;P1;durP2;ratioP2;P2;SDS_P1;SDS_P2;PMS_P1;PMS_P2;Temp;Humidity;BMP_temperature;BMP_pressure;BME280_temperature;BME280_humidity;BME280_pressure;Samples;Min_cycle;Max_cycle;Signal;HPM_P1;HPM_P2
2021/06/10 00:01:31;;;;;;;7.40;6.50;;;17.90;99.90;;;;;;5084672;28;20465;-81
2021/06/10 00:03:58;;;;;;;9.70;6.17;;;17.90;99.90;;;;;;5082459;28;20462;-79
2021/06/10 00:06:24;;;;;;;7.50;6.60;;;17.90;99.90;;;;;;5073458;28;21002;-81
2021/06/10 00:08:51;;;;;;;6.83;6.23;;;17.90;99.90;;;;;;5085087;28;20445;-81
2021/06/10 00:11:18;;;;;;;8.20;6.70;;;17.90;99.90;;;;;;5093687;28;20465;-79
2021/06/10 00:13:45;;;;;;;6.93;6.33;;;17.80;99.90;;;;;;5082690;28;20933;-80
2021/06/10 00:16:12;;;;;;;7.73;7.00;;;17.70;99.90;;;;;;5081758;28;20847;-81
2021/06/10 00:18:40;;;;;;;9.47;5.87;;;17.60;99.90;;;;;;5081980;28;20524;-80
2021/06/10 00:21:07;;;;;;;8.87;6.30;;;17.60;99.90;;;;;;5086187;28;20559;-80
2021/06/10 00:23:35;;;;;;;7.20;6.50;;;17.50;99.90;;;;;;5076817;28;20472;-80
2021/06/10 00:26:02;;;;;;;7.53;6.67;;;17.40;99.90;;;;;;5094150;28;20472;-81
2021/06/10 00:28:29;;;;;;;7.33;6.37;;;17.20;99.90;;;;;;5077736;28;20462;-80
2021/06/10 00:30:57;;;;;;;7.50;6.27;;;17.20;99.90;;;;;;5073714;28;20474;-80
2021/06/10 00:33:25;;;;;;;6.97;6.37;;;17.10;99.90;;;;;;5082399;28;20944;-81
2021/06/10 00:35:52;;;;;;;8.47;7.00;;;17.20;99.90;;;;;;5081822;28;20471;-80
2021/06/10 00:38:19;;;;;;;7.57;5.93;;;17.20;99.90;;;;;;5074054;28;20460;-80
2021/06/10 00:40:46;;;;;;;7.00;6.37;;;17.20;99.90;;;;;;5074224;28;20809;-80
2021/06/10 00:43:13;;;;;;;7.27;6.30;;;17.20;99.90;;;;;;5092692;28;20453;-79
2021/06/10 00:45:40;;;;;;;9.73;6.87;;;17.20;99.90;;;;;;5079607;28;20465;-81
2021/06/10 00:48:07;;;;;;;9.03;6.80;;;17.20;99.90;;;;;;5091374;28;20442;-80
2021/06/10 00:50:39;;;;;;;8.93;7.03;;;17.10;99.90;;;;;;5089886;28;20511;-80
2021/06/10 00:53:07;;;;;;;9.43;7.13;;;17.10;99.90;;;;;;5074574;28;20445;-80
2021/06/10 00:55:35;;;;;;;7.13;6.43;;;17.10;99.90;;;;;;5069884;28;20472;-80
2021/06/10 00:58:03;;;;;;;7.90;7.10;;;17.10;99.90;;;;;;5087419;28;20457;-81
2021/06/10 01:00:30;;;;;;;7.23;6.20;;;17.10;99.90;;;;;;5092571;28;20876;-80
2021/06/10 01:02:57;;;;;;;7.70;7.00;;;17.10;99.90;;;;;;5089991;28;20454;-80
2021/06/10 01:05:24;;;;;;;7.63;6.83;;;17.00;99.90;;;;;;5076010;28;20564;-81
2021/06/10 01:08:09;;;;;;;8.77;7.67;;;16.90;99.90;;;;;;5076604;28;20553;-80
2021/06/10 01:11:06;;;;;;;8.47;7.70;;;16.90;99.90;;;;;;5072520;28;20908;-80
2021/06/10 01:14:12;;;;;;;10.30;8.10;;;16.70;99.90;;;;;;5088644;28;20513;-81
2021/06/10 01:16:42;;;;;;;9.60;8.53;;;16.60;99.90;;;;;;5095273;28;20468;-81
2021/06/10 01:19:14;;;;;;;11.10;8.87;;;16.60;99.90;;;;;;5080807;28;20481;-81
2021/06/10 01:21:44;;;;;;;8.17;7.37;;;16.50;99.90;;;;;;5086862;28;20462;-80
2021/06/10 01:24:26;;;;;;;11.77;8.50;;;16.50;99.90;;;;;;5073742;28;20465;-81
2021/06/10 01:27:18;;;;;;;10.67;9.30;;;16.40;99.90;;;;;;5080803;28;20575;-80
2021/06/10 01:29:52;;;;;;;9.40;8.50;;;16.40;99.90;;;;;;5069777;28;20458;-80
2021/06/10 01:32:20;;;;;;;11.63;10.00;;;16.40;99.90;;;;;;5093321;28;20421;-81
2021/06/10 01:34:47;;;;;;;11.80;9.60;;;16.40;99.90;;;;;;5090486;28;20548;-81
2021/06/10 01:37:16;;;;;;;10.90;9.80;;;16.40;99.90;;;;;;5074050;28;20449;-79
2021/06/10 01:39:45;;;;;;;11.23;9.73;;;16.40;99.90;;;;;;5072747;28;20442;-80
2021/06/10 01:42:13;;;;;;;12.93;10.07;;;16.40;99.90;;;;;;5085728;28;20513;-79
2021/06/10 01:44:41;;;;;;;11.07;9.97;;;16.40;99.90;;;;;;5074478;28;20449;-81
2021/06/10 01:47:09;;;;;;;13.57;11.60;;;16.40;99.90;;;;;;5073242;28;20443;-80
2021/06/10 01:49:40;;;;;;;10.83;9.67;;;16.40;99.90;;;;;;5080727;28;20533;-80
2021/06/10 01:52:08;;;;;;;11.63;10.57;;;16.40;99.90;;;;;;5091774;28;20931;-80
2021/06/10 01:54:35;;;;;;;11.37;10.17;;;16.40;99.90;;;;;;5073913;28;22431;-79
2021/06/10 01:57:04;;;;;;;10.77;9.67;;;16.40;99.90;;;;;;5086653;28;20430;-80
2021/06/10 01:59:33;;;;;;;14.00;11.33;;;16.40;99.90;;;;;;5073216;28;20435;-80
2021/06/10 02:02:02;;;;;;;11.53;10.20;;;16.30;99.90;;;;;;5088421;28;20856;-79
2021/06/10 02:04:30;;;;;;;12.63;11.20;;;16.30;99.90;;;;;;5075779;28;20461;-81
2021/06/10 02:07:00;;;;;;;12.27;11.00;;;16.30;99.90;;;;;;5072947;28;20439;-81
2021/06/10 02:09:29;;;;;;;12.30;10.80;;;16.20;99.90;;;;;;5072301;28;20452;-80
2021/06/10 02:11:56;;;;;;;9.40;8.43;;;16.20;99.90;;;;;;5078339;28;20432;-80
2021/06/10 02:14:24;;;;;;;11.90;10.43;;;16.10;99.90;;;;;;5079208;28;20445;-79
2021/06/10 02:16:52;;;;;;;12.97;11.23;;;16.10;99.90;;;;;;5078145;28;20430;-81
2021/06/10 02:19:21;;;;;;;11.80;10.57;;;16.00;99.90;;;;;;5072368;28;20488;-80
2021/06/10 02:21:48;;;;;;;11.33;10.13;;;16.00;99.90;;;;;;5073413;28;20908;-78
2021/06/10 02:24:16;;;;;;;12.90;10.43;;;16.00;99.90;;;;;;5087027;28;20821;-80
2021/06/10 02:26:43;;;;;;;12.83;10.00;;;16.00;99.90;;;;;;5094394;28;20437;-81
2021/06/10 02:29:11;;;;;;;12.30;10.03;;;16.00;99.90;;;;;;5075704;28;20461;-80
2021/06/10 02:31:38;;;;;;;12.90;10.20;;;16.00;99.90;;;;;;5071812;28;20458;-81
2021/06/10 02:34:06;;;;;;;12.67;11.30;;;16.00;99.90;;;;;;5072586;28;20460;-81
2021/06/10 02:36:35;;;;;;;13.10;11.80;;;15.90;99.90;;;;;;5086481;28;20486;-81
2021/06/10 02:39:06;;;;;;;15.43;10.87;;;15.90;99.90;;;;;;5070625;28;20884;-80
2021/06/10 02:41:38;;;;;;;13.67;10.17;;;15.90;99.90;;;;;;5070586;28;20586;-81
2021/06/10 02:44:06;;;;;;;13.53;11.20;;;15.90;99.90;;;;;;5081139;28;20476;-78
2021/06/10 02:46:34;;;;;;;12.27;10.97;;;15.90;99.90;;;;;;5080840;28;20523;-81
2021/06/10 02:49:03;;;;;;;11.67;10.47;;;15.90;99.90;;;;;;5085540;28;20449;-80
2021/06/10 02:51:32;;;;;;;11.20;9.03;;;15.90;99.90;;;;;;5082874;28;20496;-79
2021/06/10 02:54:06;;;;;;;11.80;10.30;;;15.90;99.90;;;;;;5072031;28;20803;-81
2021/06/10 02:56:35;;;;;;;10.57;9.47;;;15.90;99.90;;;;;;5084109;28;20811;-80
2021/06/10 02:59:04;;;;;;;13.20;9.30;;;15.90;99.90;;;;;;5088269;28;20464;-81
2021/06/10 03:01:40;;;;;;;14.00;10.27;;;15.80;99.90;;;;;;5077126;28;20489;-80
2021/06/10 03:04:09;;;;;;;12.90;10.23;;;15.80;99.90;;;;;;5083733;28;20467;-80
2021/06/10 03:06:37;;;;;;;10.53;9.40;;;15.80;99.90;;;;;;5080560;28;21030;-79
2021/06/10 03:09:04;;;;;;;15.07;10.43;;;15.70;99.90;;;;;;5091280;28;20470;-80
2021/06/10 03:11:34;;;;;;;11.57;9.90;;;15.70;99.90;;;;;;5083002;28;20477;-80
2021/06/10 03:14:08;;;;;;;9.90;9.00;;;15.60;99.90;;;;;;5082731;28;20447;-80
2021/06/10 03:16:40;;;;;;;12.47;9.47;;;15.60;99.90;;;;;;5073045;28;20474;-80
2021/06/10 03:19:07;;;;;;;12.00;10.13;;;15.70;99.90;;;;;;5086166;28;20456;-80
2021/06/10 03:21:38;;;;;;;12.43;10.10;;;15.60;99.90;;;;;;5079643;28;20469;-81
2021/06/10 03:24:05;;;;;;;11.43;9.80;;;15.60;99.90;;;;;;5076710;28;20556;-80
2021/06/10 03:26:35;;;;;;;10.23;9.17;;;15.60;99.90;;;;;;5082226;28;20555;-80
2021/06/10 03:29:03;;;;;;;10.30;9.30;;;15.60;99.90;;;;;;5089739;28;20465;-80
2021/06/10 03:31:30;;;;;;;14.03;9.70;;;15.60;99.90;;;;;;5084639;28;20889;-80
2021/06/10 03:34:01;;;;;;;11.20;10.00;;;15.50;99.90;;;;;;5070644;28;20462;-81
2021/06/10 03:36:30;;;;;;;10.53;9.47;;;15.50;99.90;;;;;;5078642;28;20473;-80
2021/06/10 03:38:58;;;;;;;10.30;9.40;;;15.50;99.90;;;;;;5070509;28;20456;-80
2021/06/10 03:41:26;;;;;;;10.97;9.37;;;15.50;99.90;;;;;;5072939;28;20461;-80
2021/06/10 03:43:57;;;;;;;9.90;9.00;;;15.50;99.90;;;;;;5058705;28;20506;-80
2021/06/10 03:46:24;;;;;;;9.67;8.67;;;15.40;99.90;;;;;;5078510;28;20472;-80
2021/06/10 03:48:52;;;;;;;10.40;8.30;;;15.40;99.90;;;;;;5091127;28;20449;-81
2021/06/10 03:51:20;;;;;;;10.17;9.13;;;15.40;99.90;;;;;;5077650;28;20551;-79
2021/06/10 03:53:49;;;;;;;11.23;9.50;;;15.40;99.90;;;;;;5079009;28;20555;-81
2021/06/10 03:56:19;;;;;;;13.47;9.53;;;15.30;99.90;;;;;;5095691;28;20472;-81
2021/06/10 03:58:47;;;;;;;9.77;8.80;;;15.30;99.90;;;;;;5088478;28;20688;-81
2021/06/10 04:01:13;;;;;;;10.03;9.03;;;15.30;99.90;;;;;;5080307;28;20475;-80
2021/06/10 04:03:40;;;;;;;11.23;9.50;;;15.30;99.90;;;;;;5085962;28;20460;-81
2021/06/10 04:06:10;;;;;;;8.93;8.07;;;15.40;99.90;;;;;;5081317;28;20500;-80
2021/06/10 04:08:37;;;;;;;9.10;8.30;;;15.30;99.90;;;;;;5092954;28;20449;-80
2021/06/10 04:11:04;;;;;;;10.03;8.17;;;15.30;99.90;;;;;;5086681;28;20466;-80
2021/06/10 04:13:31;;;;;;;9.80;7.97;;;15.30;99.90;;;;;;5093280;28;20434;-80
2021/06/10 04:15:58;;;;;;;10.07;8.73;;;15.40;99.90;;;;;;5085315;28;20467;-79
2021/06/10 04:18:25;;;;;;;9.90;8.40;;;15.40;99.90;;;;;;5094305;28;20852;-80
2021/06/10 04:20:55;;;;;;;8.47;7.70;;;15.40;99.90;;;;;;5090829;28;20529;-80
2021/06/10 04:23:22;;;;;;;8.97;8.07;;;15.50;99.90;;;;;;5080293;28;21084;-78
2021/06/10 04:25:49;;;;;;;9.20;8.27;;;15.40;99.90;;;;;;5085938;28;20487;-81
2021/06/10 04:28:16;;;;;;;9.57;8.37;;;15.50;99.90;;;;;;5087779;28;20464;-80
2021/06/10 04:30:43;;;;;;;9.50;8.50;;;15.60;99.90;;;;;;5083834;28;20460;-80
2021/06/10 04:33:10;;;;;;;9.77;8.47;;;15.60;99.90;;;;;;5081975;28;20459;-79
2021/06/10 04:35:39;;;;;;;9.07;8.17;;;15.70;99.90;;;;;;5073148;28;20461;-80
2021/06/10 04:38:10;;;;;;;10.60;8.87;;;15.80;99.90;;;;;;5084354;28;21004;-80
2021/06/10 04:40:37;;;;;;;12.20;9.23;;;15.90;99.90;;;;;;5092596;28;20452;-80
2021/06/10 04:43:04;;;;;;;8.30;7.53;;;15.90;99.90;;;;;;5073208;28;20433;-80
2021/06/10 04:45:30;;;;;;;9.20;7.60;;;16.00;99.90;;;;;;5074096;28;21064;-80
2021/06/10 04:47:57;;;;;;;10.40;8.90;;;16.00;99.90;;;;;;5074412;28;20519;-80
2021/06/10 04:50:27;;;;;;;11.17;9.00;;;16.00;99.90;;;;;;5072586;28;20473;-80
2021/06/10 04:52:58;;;;;;;11.20;8.60;;;16.10;99.90;;;;;;5092032;28;20438;-80
2021/06/10 04:55:26;;;;;;;9.83;8.93;;;16.10;99.90;;;;;;5091043;28;20822;-79
2021/06/10 04:57:53;;;;;;;10.83;8.37;;;16.20;99.90;;;;;;5093494;28;20449;-80
2021/06/10 05:00:21;;;;;;;11.40;10.30;;;16.30;99.90;;;;;;5077213;28;20462;-80
2021/06/10 05:02:48;;;;;;;12.07;8.57;;;16.40;99.90;;;;;;5080201;28;20431;-79
2021/06/10 05:05:15;;;;;;;11.70;10.17;;;16.50;99.90;;;;;;5070546;28;20462;-80
2021/06/10 05:07:42;;;;;;;12.30;9.07;;;16.50;99.90;;;;;;5080395;28;20462;-80
2021/06/10 05:10:09;;;;;;;11.37;10.10;;;16.60;99.90;;;;;;5084950;28;20469;-79
2021/06/10 05:12:36;;;;;;;9.97;9.03;;;16.70;99.90;;;;;;5078019;28;20452;-79
2021/06/10 05:15:05;;;;;;;10.60;9.60;;;16.70;99.90;;;;;;5092386;28;20795;-80
2021/06/10 05:17:32;;;;;;;10.67;9.67;;;16.80;99.90;;;;;;5077892;28;20497;-79
2021/06/10 05:19:59;;;;;;;10.10;9.10;;;16.90;99.90;;;;;;5085376;28;20457;-80
2021/06/10 05:22:27;;;;;;;11.23;9.90;;;17.00;99.90;;;;;;5088491;28;20870;-79
2021/06/10 05:24:54;;;;;;;13.10;9.63;;;17.10;99.90;;;;;;5089064;28;20474;-79
2021/06/10 05:27:21;;;;;;;10.73;9.73;;;17.30;99.90;;;;;;5074126;28;20458;-80
2021/06/10 05:29:48;;;;;;;10.60;9.60;;;17.40;99.90;;;;;;5077492;28;20458;-81
2021/06/10 05:32:18;;;;;;;9.87;8.80;;;17.40;99.90;;;;;;5088007;28;20441;-79
2021/06/10 05:34:45;;;;;;;10.53;9.40;;;17.50;99.90;;;;;;5074133;28;20474;-79
2021/06/10 05:37:12;;;;;;;11.80;10.10;;;17.50;99.90;;;;;;5081632;28;20450;-80
2021/06/10 05:39:39;;;;;;;9.17;8.27;;;17.60;99.90;;;;;;5074005;28;20454;-79
2021/06/10 05:42:10;;;;;;;9.37;8.47;;;17.70;99.90;;;;;;5093035;28;20429;-79
2021/06/10 05:44:40;;;;;;;10.23;9.07;;;17.80;99.90;;;;;;5092880;28;20530;-79
2021/06/10 05:47:09;;;;;;;10.53;8.30;;;17.80;99.90;;;;;;5091138;28;20819;-80
2021/06/10 05:49:36;;;;;;;8.77;7.87;;;17.90;99.90;;;;;;5074996;28;20616;-80
2021/06/10 05:52:03;;;;;;;8.90;7.37;;;18.10;99.90;;;;;;5073510;28;20442;-79
2021/06/10 05:54:33;;;;;;;9.63;8.17;;;18.20;99.90;;;;;;5090137;28;21135;-79
2021/06/10 05:57:03;;;;;;;10.63;8.10;;;18.40;99.90;;;;;;5078029;28;20834;-80
2021/06/10 05:59:30;;;;;;;10.00;7.90;;;18.50;99.90;;;;;;5092562;28;20426;-79
2021/06/10 06:01:57;;;;;;;9.47;7.50;;;18.70;99.90;;;;;;5092555;28;20974;-79
2021/06/10 06:04:25;;;;;;;8.93;8.03;;;18.90;99.90;;;;;;5085215;28;20476;-80
2021/06/10 06:06:52;;;;;;;11.30;7.93;;;19.20;99.90;;;;;;5056890;28;20434;-79
2021/06/10 06:09:21;;;;;;;10.70;7.07;;;19.50;99.90;;;;;;5083859;28;20449;-79
2021/06/10 06:11:51;;;;;;;9.43;7.00;;;20.10;99.90;;;;;;5082256;28;20439;-81
2021/06/10 06:14:26;;;;;;;7.17;6.47;;;20.70;95.60;;;;;;5086812;28;20426;-80
2021/06/10 06:16:53;;;;;;;7.20;6.50;;;21.20;96.00;;;;;;5078539;28;20559;-80
2021/06/10 06:19:22;;;;;;;9.30;6.73;;;21.60;93.10;;;;;;5087444;28;20958;-80
2021/06/10 06:21:49;;;;;;;6.40;4.70;;;22.00;90.30;;;;;;5090937;28;20433;-80
2021/06/10 06:24:20;;;;;;;7.03;6.33;;;22.20;85.60;;;;;;5092129;28;20510;-80
2021/06/10 06:26:47;;;;;;;5.80;5.30;;;22.60;81.40;;;;;;5074840;28;20532;-81
2021/06/10 06:29:16;;;;;;;5.37;3.43;;;22.80;80.20;;;;;;5082475;28;20592;-79
2021/06/10 06:31:43;;;;;;;5.37;4.03;;;23.00;69.10;;;;;;5085998;28;20487;-79
2021/06/10 06:34:11;;;;;;;3.50;3.20;;;23.20;67.90;;;;;;5071666;28;20431;-79
2021/06/10 06:36:38;;;;;;;3.97;3.57;;;23.20;62.50;;;;;;5079295;28;20557;-80
2021/06/10 06:39:06;;;;;;;3.00;2.63;;;23.30;56.70;;;;;;5077779;28;20445;-79
2021/06/10 06:41:33;;;;;;;5.13;3.33;;;23.30;58.60;;;;;;5077942;28;20480;-79
2021/06/10 06:44:01;;;;;;;5.23;3.53;;;23.20;59.70;;;;;;5078301;28;20456;-80
2021/06/10 06:46:28;;;;;;;5.70;3.40;;;23.10;62.60;;;;;;5084399;28;20568;-80
2021/06/10 06:48:57;;;;;;;3.60;2.80;;;23.10;60.70;;;;;;5074962;28;20449;-80
2021/06/10 06:51:27;;;;;;;4.00;3.20;;;23.20;57.20;;;;;;5080465;28;20473;-79
2021/06/10 06:53:57;;;;;;;3.73;3.10;;;23.10;57.10;;;;;;5080613;28;20910;-81
2021/06/10 06:56:24;;;;;;;3.13;2.83;;;23.30;56.00;;;;;;5087231;28;20496;-80
2021/06/10 06:58:52;;;;;;;3.57;3.17;;;23.40;53.40;;;;;;5090521;28;20526;-81
2021/06/10 07:01:20;;;;;;;2.90;2.60;;;23.50;59.20;;;;;;5074023;28;20487;-78
2021/06/10 07:03:50;;;;;;;3.90;3.00;;;23.40;57.70;;;;;;5088986;28;20461;-80
2021/06/10 07:06:17;;;;;;;3.50;2.77;;;23.40;58.50;;;;;;5089399;28;20888;-80
2021/06/10 07:08:44;;;;;;;4.50;2.70;;;23.30;59.50;;;;;;5082384;28;20457;-80
2021/06/10 07:11:12;;;;;;;2.60;2.40;;;23.30;60.10;;;;;;5086474;28;20453;-79
2021/06/10 07:13:39;;;;;;;3.40;3.20;;;23.40;59.90;;;;;;5075166;28;20477;-79
2021/06/10 07:16:06;;;;;;;2.50;2.30;;;23.40;56.50;;;;;;5082812;28;20469;-80
2021/06/10 07:18:33;;;;;;;4.03;3.00;;;23.30;57.90;;;;;;5086139;28;20986;-79
2021/06/10 07:21:11;;;;;;;3.83;3.10;;;23.30;58.60;;;;;;5083663;28;20472;-80
2021/06/10 07:23:38;;;;;;;3.57;3.27;;;23.20;59.40;;;;;;5072090;28;20440;-80
2021/06/10 07:26:04;;;;;;;3.13;2.83;;;23.30;60.40;;;;;;5065132;28;21070;-82
2021/06/10 07:28:34;;;;;;;4.53;2.93;;;23.30;62.40;;;;;;5081798;28;20550;-81
2021/06/10 07:31:01;;;;;;;3.27;2.97;;;23.40;62.80;;;;;;5082374;28;20473;-81
2021/06/10 07:33:28;;;;;;;3.50;3.20;;;23.40;58.90;;;;;;5095827;28;20460;-80
2021/06/10 07:35:58;;;;;;;3.33;2.50;;;23.60;58.80;;;;;;5092936;28;20492;-79
2021/06/10 07:38:25;;;;;;;12.43;2.90;;;23.60;56.80;;;;;;5086498;28;21058;-81
2021/06/10 07:40:52;;;;;;;5.73;3.33;;;23.50;56.90;;;;;;5077456;28;20466;-79
2021/06/10 07:43:19;;;;;;;5.50;2.57;;;23.60;59.10;;;;;;5087922;28;20916;-80
2021/06/10 07:45:46;;;;;;;3.17;2.83;;;23.80;57.10;;;;;;5082468;28;20482;-79
2021/06/10 07:48:14;;;;;;;5.13;3.30;;;23.80;57.50;;;;;;5081275;28;21012;-80
2021/06/10 07:50:41;;;;;;;3.63;3.00;;;23.90;58.60;;;;;;5077462;28;20565;-80
2021/06/10 07:53:09;;;;;;;3.60;3.03;;;23.90;53.20;;;;;;5087267;28;20456;-81
2021/06/10 07:55:40;;;;;;;3.10;2.80;;;23.90;57.90;;;;;;5075699;28;20475;-79
2021/06/10 07:58:07;;;;;;;3.07;2.67;;;24.00;56.90;;;;;;5080855;28;20457;-80
2021/06/10 08:00:34;;;;;;;3.23;3.00;;;24.10;55.70;;;;;;5082817;28;20473;-79
2021/06/10 08:03:01;;;;;;;7.90;3.67;;;24.30;56.90;;;;;;5085039;28;20465;-79
2021/06/10 08:05:29;;;;;;;4.50;3.47;;;24.30;56.80;;;;;;5085507;28;20459;-79
2021/06/10 08:07:56;;;;;;;4.43;3.77;;;24.30;57.70;;;;;;5074523;28;20450;-80
2021/06/10 08:10:30;;;;;;;5.37;4.27;;;24.20;57.20;;;;;;5084777;28;20461;-79
2021/06/10 08:12:57;;;;;;;5.43;4.40;;;24.30;54.90;;;;;;5095311;28;20420;-79
2021/06/10 08:15:24;;;;;;;6.80;5.23;;;24.30;58.20;;;;;;5093477;28;20796;-80
2021/06/10 08:17:51;;;;;;;6.90;6.30;;;24.30;58.00;;;;;;5074472;28;20446;-80
2021/06/10 08:20:19;;;;;;;5.80;4.70;;;24.20;56.80;;;;;;5073067;28;20812;-79
2021/06/10 08:22:47;;;;;;;4.83;4.33;;;24.30;56.90;;;;;;5057395;28;20870;-79
2021/06/10 08:25:15;;;;;;;6.23;4.83;;;24.40;59.70;;;;;;5073030;28;20471;-79
2021/06/10 08:27:42;;;;;;;5.63;4.50;;;24.50;57.30;;;;;;5075496;28;20494;-80
2021/06/10 08:30:11;;;;;;;5.50;5.00;;;24.50;58.60;;;;;;5092478;28;20478;-78
2021/06/10 08:32:38;;;;;;;5.43;4.90;;;24.70;59.10;;;;;;5097283;28;20438;-79
2021/06/10 08:35:08;;;;;;;7.70;4.50;;;24.70;56.70;;;;;;5092578;28;20473;-80
2021/06/10 08:37:35;;;;;;;7.20;4.50;;;24.80;59.10;;;;;;5085992;28;20465;-80
2021/06/10 08:40:04;;;;;;;6.00;4.50;;;24.90;58.80;;;;;;5096357;28;20482;-80
2021/06/10 08:42:36;;;;;;;6.60;4.50;;;25.00;56.70;;;;;;5086682;28;20434;-79
2021/06/10 08:45:11;;;;;;;5.17;4.37;;;25.10;55.80;;;;;;5077722;28;20562;-79
2021/06/10 08:47:40;;;;;;;7.67;5.17;;;25.10;54.80;;;;;;5089662;28;20539;-80
2021/06/10 08:50:09;;;;;;;4.60;4.13;;;25.10;57.50;;;;;;5075251;28;20461;-80
2021/06/10 08:52:38;;;;;;;4.73;4.33;;;25.30;63.10;;;;;;5092039;28;20501;-80
2021/06/10 08:55:12;;;;;;;4.93;4.23;;;25.30;56.50;;;;;;5092302;28;20463;-79
2021/06/10 08:57:39;;;;;;;9.30;4.07;;;25.40;55.80;;;;;;5076170;28;20545;-80
2021/06/10 09:00:25;;;;;;;4.17;3.63;;;25.60;57.90;;;;;;5082518;28;20506;-79
2021/06/10 09:02:54;;;;;;;5.20;4.80;;;25.80;56.40;;;;;;5083933;28;20434;-80
2021/06/10 09:05:22;;;;;;;5.60;4.30;;;25.80;54.30;;;;;;5090476;28;20499;-79
2021/06/10 09:08:02;;;;;;;8.23;5.43;;;26.10;56.70;;;;;;5080998;28;20552;-79
2021/06/10 09:10:31;;;;;;;4.73;3.70;;;26.00;52.70;;;;;;5079657;28;20469;-80
2021/06/10 09:13:06;;;;;;;9.53;5.47;;;25.90;52.60;;;;;;5079377;28;20538;-80
2021/06/10 09:15:36;;;;;;;6.50;4.00;;;25.70;52.60;;;;;;5056809;28;21058;-82
2021/06/10 09:18:04;;;;;;;7.47;4.87;;;25.60;54.30;;;;;;5102584;28;20454;-80
2021/06/10 09:20:41;;;;;;;6.90;3.87;;;25.50;55.30;;;;;;5073133;28;20894;-78
2021/06/10 09:23:26;;;;;;;5.40;4.37;;;25.40;52.70;;;;;;5085225;28;20460;-79
2021/06/10 09:26:04;;;;;;;3.80;3.50;;;25.40;52.50;;;;;;5076559;28;20479;-81
2021/06/10 09:28:32;;;;;;;4.83;4.33;;;25.50;58.70;;;;;;5087536;28;20525;-79
2021/06/10 09:31:00;;;;;;;4.77;3.97;;;25.60;53.50;;;;;;5092716;28;20496;-82
2021/06/10 09:33:39;;;;;;;4.93;4.50;;;25.70;56.10;;;;;;5093326;28;20464;-81
2021/06/10 09:36:07;;;;;;;4.20;3.83;;;25.90;54.30;;;;;;5071142;28;20465;-81
2021/06/10 09:38:34;;;;;;;4.80;4.40;;;26.00;51.90;;;;;;5081041;28;20449;-81
2021/06/10 09:41:06;;;;;;;5.23;4.23;;;26.20;52.90;;;;;;5086137;28;20489;-80
2021/06/10 09:43:44;;;;;;;6.50;4.43;;;26.40;49.70;;;;;;5083158;28;21037;-82
2021/06/10 09:46:11;;;;;;;5.23;4.40;;;26.50;52.40;;;;;;5072234;28;20462;-83
2021/06/10 09:48:41;;;;;;;7.50;5.30;;;26.60;51.30;;;;;;5089594;28;20453;-81
2021/06/10 09:51:28;;;;;;;3.93;3.30;;;26.60;52.10;;;;;;5079863;28;20527;-81
2021/06/10 09:53:55;;;;;;;5.40;4.90;;;26.60;52.80;;;;;;5081971;28;20534;-81
2021/06/10 09:56:23;;;;;;;5.40;5.00;;;26.60;52.00;;;;;;5078542;28;20498;-82
2021/06/10 09:58:55;;;;;;;5.03;4.53;;;26.60;53.50;;;;;;5082274;28;20807;-81
2021/06/10 10:01:26;;;;;;;4.60;4.20;;;26.70;52.70;;;;;;5077090;28;20469;-80
2021/06/10 10:03:54;;;;;;;5.63;4.63;;;26.80;53.20;;;;;;5089967;28;20795;-81
2021/06/10 10:06:25;;;;;;;6.03;5.53;;;26.70;54.60;;;;;;5078131;28;20470;-82
2021/06/10 10:08:53;;;;;;;7.60;6.53;;;26.70;54.70;;;;;;5072555;28;20456;-79
2021/06/10 10:11:24;;;;;;;7.50;6.70;;;26.70;52.90;;;;;;5057733;28;20823;-80
2021/06/10 10:13:56;;;;;;;6.53;5.40;;;26.60;54.00;;;;;;5083145;28;20443;-81
2021/06/10 10:16:26;;;;;;;6.93;5.90;;;26.50;50.60;;;;;;5082550;28;20462;-79
2021/06/10 10:18:57;;;;;;;4.50;4.10;;;26.40;53.50;;;;;;5090029;28;20457;-80
2021/06/10 10:21:27;;;;;;;6.43;5.67;;;26.30;54.10;;;;;;5080465;28;20481;-80
2021/06/10 10:24:01;;;;;;;11.43;5.27;;;26.40;54.80;;;;;;5089509;28;20435;-80
2021/06/10 10:26:29;;;;;;;5.93;4.90;;;26.60;54.20;;;;;;5071853;28;20810;-79
2021/06/10 10:29:01;;;;;;;5.60;4.83;;;26.70;52.30;;;;;;5086259;28;20872;-80
2021/06/10 10:31:29;;;;;;;5.67;5.17;;;26.70;49.10;;;;;;5088787;28;20552;-80
2021/06/10 10:33:56;;;;;;;9.77;6.30;;;26.70;50.40;;;;;;5079729;28;20828;-80
2021/06/10 10:36:24;;;;;;;6.63;5.93;;;26.70;51.00;;;;;;5082448;28;21014;-80
2021/06/10 10:39:05;;;;;;;8.27;6.50;;;26.70;50.40;;;;;;5070313;28;20537;-79
2021/06/10 10:41:45;;;;;;;5.70;5.20;;;26.70;52.80;;;;;;5086434;28;20469;-79
2021/06/10 10:44:21;;;;;;;7.00;6.30;;;26.50;51.50;;;;;;5091439;28;20433;-81
2021/06/10 10:47:03;;;;;;;6.07;5.20;;;26.30;52.70;;;;;;5058959;28;21060;-80
2021/06/10 10:49:39;;;;;;;7.10;5.80;;;26.10;52.90;;;;;;5067419;28;20422;-81
2021/06/10 10:52:16;;;;;;;6.00;5.50;;;26.00;53.80;;;;;;5077942;28;20533;-81
2021/06/10 10:54:51;;;;;;;7.83;6.03;;;26.20;50.80;;;;;;5081531;28;20762;-81
2021/06/10 10:57:39;;;;;;;5.13;4.63;;;26.40;51.00;;;;;;5057529;28;20485;-81
2021/06/10 11:00:13;;;;;;;9.50;4.77;;;26.60;49.70;;;;;;5070985;28;20499;-81
2021/06/10 11:03:22;;;;;;;7.00;5.30;;;26.60;53.20;;;;;;5070536;28;20413;-80
2021/06/10 11:05:56;;;;;;;7.17;4.73;;;26.70;50.30;;;;;;5053400;28;20497;-80
2021/06/10 11:08:59;;;;;;;5.00;4.50;;;26.80;51.10;;;;;;5071236;28;20434;-81
2021/06/10 11:11:58;;;;;;;6.53;4.40;;;26.90;52.60;;;;;;5053168;28;20511;-81
2021/06/10 11:14:43;;;;;;;4.50;3.90;;;27.10;52.60;;;;;;5070624;28;20426;-80
2021/06/10 11:17:42;;;;;;;6.83;4.50;;;27.30;50.10;;;;;;5086925;28;20433;-80
2021/06/10 11:20:13;;;;;;;5.00;4.27;;;27.30;48.50;;;;;;5086618;28;20999;-81
2021/06/10 11:22:50;;;;;;;5.70;4.60;;;27.40;48.10;;;;;;5071484;28;20448;-80
2021/06/10 11:25:27;;;;;;;4.80;4.40;;;27.50;51.10;;;;;;5045283;28;20540;-81
2021/06/10 11:28:06;;;;;;;5.40;4.27;;;27.50;51.80;;;;;;5069786;28;20894;-79
2021/06/10 11:30:35;;;;;;;3.90;3.60;;;27.60;48.90;;;;;;5053410;28;20860;-81
2021/06/10 11:33:07;;;;;;;5.60;4.97;;;27.60;48.00;;;;;;5070286;28;20427;-81
2021/06/10 11:35:43;;;;;;;4.80;4.20;;;27.80;48.30;;;;;;5086327;28;20466;-79
2021/06/10 11:38:27;;;;;;;5.70;4.20;;;27.80;45.90;;;;;;5085767;28;20538;-80
2021/06/10 11:41:01;;;;;;;4.13;3.83;;;27.80;49.10;;;;;;5069145;28;20564;-80
2021/06/10 11:43:29;;;;;;;6.10;4.10;;;27.80;47.50;;;;;;5053851;28;21134;-79
2021/06/10 11:46:04;;;;;;;4.33;3.93;;;27.70;46.80;;;;;;5070574;28;20462;-79
2021/06/10 11:48:35;;;;;;;5.27;4.73;;;27.60;49.30;;;;;;5071003;28;20487;-81
2021/06/10 11:51:06;;;;;;;4.03;3.70;;;27.70;49.50;;;;;;5085546;28;20833;-80
2021/06/10 11:53:37;;;;;;;5.67;4.13;;;27.80;47.80;;;;;;5070136;28;20419;-81
2021/06/10 11:56:04;;;;;;;6.03;3.90;;;27.90;47.90;;;;;;5053964;28;20462;-80
2021/06/10 11:58:31;;;;;;;6.67;4.80;;;28.10;47.50;;;;;;5071196;28;20483;-79
2021/06/10 12:01:08;;;;;;;7.97;4.50;;;28.00;50.20;;;;;;5089623;28;20871;-79
2021/06/10 12:03:35;;;;;;;5.50;4.47;;;27.90;50.50;;;;;;5090157;28;20460;-81
2021/06/10 12:06:08;;;;;;;4.43;3.80;;;27.90;47.80;;;;;;5084093;28;20462;-81
2021/06/10 12:08:41;;;;;;;4.60;4.20;;;27.90;48.70;;;;;;5069399;28;20459;-80
2021/06/10 12:11:10;;;;;;;5.70;3.70;;;28.00;51.10;;;;;;5069184;28;20466;-80
2021/06/10 12:13:51;;;;;;;5.67;4.53;;;28.20;46.80;;;;;;5071071;28;20982;-80
2021/06/10 12:16:19;;;;;;;3.03;2.83;;;28.30;49.60;;;;;;5063439;28;20542;-80
2021/06/10 12:18:49;;;;;;;4.00;3.60;;;28.30;45.20;;;;;;5072209;28;20508;-79
2021/06/10 12:21:19;;;;;;;4.47;4.07;;;28.20;48.80;;;;;;5072479;28;20469;-79
2021/06/10 12:23:51;;;;;;;5.73;4.00;;;28.20;48.20;;;;;;5082124;28;20935;-80
2021/06/10 12:26:23;;;;;;;5.70;3.70;;;28.20;49.60;;;;;;5087228;28;20517;-80
2021/06/10 12:28:54;;;;;;;5.00;4.33;;;28.20;46.60;;;;;;5084152;28;20519;-82
2021/06/10 12:31:36;;;;;;;5.80;5.17;;;28.30;44.50;;;;;;5080489;28;20464;-82
2021/06/10 12:34:07;;;;;;;3.90;3.60;;;28.20;46.20;;;;;;5093245;28;20438;-82
2021/06/10 12:36:38;;;;;;;5.73;4.97;;;28.30;46.90;;;;;;5084828;28;20524;-80
2021/06/10 12:39:19;;;;;;;7.40;4.60;;;28.30;45.90;;;;;;5072485;28;20572;-82
2021/06/10 12:41:53;;;;;;;4.47;4.07;;;28.30;45.10;;;;;;5081531;28;20835;-82
2021/06/10 12:44:34;;;;;;;4.63;4.13;;;28.20;44.70;;;;;;5093151;28;20422;-81
2021/06/10 12:47:05;;;;;;;5.40;4.73;;;28.20;45.10;;;;;;5077128;28;20478;-81
2021/06/10 12:49:53;;;;;;;6.00;5.40;;;28.30;43.50;;;;;;5070991;28;20465;-80
2021/06/10 12:52:26;;;;;;;7.07;4.93;;;28.40;42.40;;;;;;5087741;28;20438;-81
2021/06/10 12:55:01;;;;;;;5.33;4.30;;;28.40;44.90;;;;;;5090679;28;20462;-80
2021/06/10 12:57:30;;;;;;;5.30;3.57;;;28.60;46.90;;;;;;5092945;28;20452;-80
2021/06/10 13:00:12;;;;;;;3.60;3.30;;;28.60;42.90;;;;;;5089917;28;20854;-82